Time;durP1;ratioP1;P1;durP2;ratioP2;P2;SDS_P1;SDS_P2;PMS_P1;PMS_P2;Temp;Humidity;BMP_temperature;BMP_pressure;BME280_temperature;BME280_humidity;BME280_pressure;Samples;Min_cycle;Max_cycle;Signal;HPM_P1;HPM_P2
2024/01/16 00:01:37;;;;;;;7.07;3.77;;;0.60;98.00;;;;;;5053086;28;20850;-67
2024/01/16 00:04:04;;;;;;;6.87;3.17;;;0.50;98.00;;;;;;5055745;28;20472;-67
2024/01/16 00:06:31;;;;;;;4.10;2.77;;;0.50;98.00;;;;;;5055682;28;20461;-67
2024/01/16 00:09:00;;;;;;;7.67;3.30;;;0.50;98.00;;;;;;5055380;28;20453;-68
2024/01/16 00:11:27;;;;;;;6.70;3.07;;;0.50;98.00;;;;;;5055579;28;20456;-67
2024/01/16 00:13:54;;;;;;;8.30;3.40;;;0.50;98.00;;;;;;5037856;28;20456;-67
2024/01/16 00:16:21;;;;;;;5.43;3.10;;;0.50;98.00;;;;;;5055063;28;20485;-68
2024/01/16 00:18:48;;;;;;;6.30;3.23;;;0.60;98.00;;;;;;5055101;28;20459;-67
2024/01/16 00:21:16;;;;;;;6.53;3.20;;;0.50;98.00;;;;;;5055483;28;20857;-67
2024/01/16 00:23:43;;;;;;;7.27;3.10;;;0.50;98.00;;;;;;5055544;28;20968;-67
2024/01/16 00:26:20;;;;;;;11.40;3.50;;;0.60;98.00;;;;;;5037363;28;21010;-67
2024/01/16 00:28:47;;;;;;;8.43;3.50;;;0.60;98.00;;;;;;5055088;28;20496;-67
2024/01/16 00:31:15;;;;;;;7.70;3.40;;;0.60;98.00;;;;;;5037293;28;21001;-67
2024/01/16 00:33:42;;;;;;;6.47;3.20;;;0.70;98.00;;;;;;5055227;28;20449;-67
2024/01/16 00:36:10;;;;;;;5.67;3.07;;;0.70;98.00;;;;;;5054926;28;20492;-67
2024/01/16 00:38:37;;;;;;;4.77;2.80;;;0.60;98.00;;;;;;5055010;28;20489;-67
2024/01/16 00:41:04;;;;;;;5.63;2.93;;;0.60;98.00;;;;;;5054999;28;20795;-67
2024/01/16 00:43:32;;;;;;;9.80;3.40;;;0.60;98.00;;;;;;5054763;28;20955;-67
2024/01/16 00:45:59;;;;;;;6.70;2.80;;;0.50;98.00;;;;;;5055037;28;20812;-67
2024/01/16 00:48:26;;;;;;;9.57;3.20;;;0.60;98.00;;;;;;5054932;28;21150;-67
2024/01/16 00:50:55;;;;;;;5.70;2.77;;;0.50;98.00;;;;;;5054939;28;20831;-67
2024/01/16 00:53:22;;;;;;;7.00;2.93;;;0.50;98.00;;;;;;5054356;28;21009;-67
2024/01/16 00:55:50;;;;;;;5.73;3.33;;;0.40;98.00;;;;;;5054711;28;20483;-67
2024/01/16 00:58:17;;;;;;;6.20;3.33;;;0.50;98.00;;;;;;5054636;28;20456;-67
2024/01/16 01:00:45;;;;;;;5.80;3.00;;;0.50;98.00;;;;;;5054618;28;20518;-67
2024/01/16 01:03:13;;;;;;;8.03;3.33;;;0.40;98.00;;;;;;5054727;28;20453;-67
2024/01/16 01:05:40;;;;;;;6.63;3.13;;;0.50;98.00;;;;;;5054585;28;20457;-68
2024/01/16 01:08:07;;;;;;;7.40;3.07;;;0.50;98.00;;;;;;5054458;28;20449;-67
2024/01/16 01:10:35;;;;;;;6.07;3.00;;;0.60;98.00;;;;;;5054255;28;20462;-67
2024/01/16 01:13:02;;;;;;;6.70;3.20;;;0.50;98.00;;;;;;5052496;28;20459;-67
2024/01/16 01:15:29;;;;;;;6.87;2.97;;;0.40;98.00;;;;;;5036021;28;20851;-67
2024/01/16 01:17:57;;;;;;;10.13;3.40;;;0.30;98.00;;;;;;5054142;28;20487;-67
2024/01/16 01:20:25;;;;;;;6.47;3.70;;;0.30;98.00;;;;;;5054308;28;20457;-67
2024/01/16 01:22:52;;;;;;;9.00;3.30;;;0.30;98.00;;;;;;5054445;28;20868;-68
2024/01/16 01:25:20;;;;;;;9.80;3.93;;;0.30;98.00;;;;;;5054276;28;20460;-67
2024/01/16 01:27:47;;;;;;;8.10;3.40;;;0.30;98.00;;;;;;5054211;28;20812;-67
2024/01/16 01:30:14;;;;;;;8.33;3.20;;;0.30;98.00;;;;;;5054016;28;20544;-67
2024/01/16 01:32:41;;;;;;;8.20;3.30;;;0.30;98.00;;;;;;5054079;28;20460;-67
2024/01/16 01:35:11;;;;;;;8.50;3.83;;;0.30;98.00;;;;;;5053941;28;20471;-68
2024/01/16 01:37:38;;;;;;;7.40;3.03;;;0.30;98.00;;;;;;5054251;28;20467;-67
2024/01/16 01:40:06;;;;;;;9.93;3.10;;;0.30;98.00;;;;;;5054124;28;20456;-67
2024/01/16 01:42:33;;;;;;;6.87;2.93;;;0.30;98.00;;;;;;5054107;28;20456;-67
2024/01/16 01:45:00;;;;;;;8.50;3.80;;;0.40;98.00;;;;;;5054127;28;20455;-67
2024/01/16 01:47:28;;;;;;;9.83;3.50;;;0.40;98.00;;;;;;5053800;28;20790;-68
2024/01/16 01:49:55;;;;;;;9.70;3.40;;;0.40;98.00;;;;;;5053595;28;20469;-67
2024/01/16 01:52:25;;;;;;;5.37;3.40;;;0.40;98.00;;;;;;5053308;28;20468;-67
2024/01/16 01:54:53;;;;;;;7.63;3.00;;;0.30;98.00;;;;;;5035998;28;20465;-67
2024/01/16 01:57:20;;;;;;;8.90;3.23;;;0.30;98.00;;;;;;5053824;28;20480;-68
2024/01/16 01:59:47;;;;;;;9.47;4.00;;;0.40;98.00;;;;;;5053754;28;20459;-67
2024/01/16 02:02:15;;;;;;;6.40;3.40;;;0.50;98.00;;;;;;5053409;28;20465;-67
2024/01/16 02:04:43;;;;;;;8.40;3.17;;;0.40;98.00;;;;;;5036014;28;20459;-67
2024/01/16 02:07:11;;;;;;;6.10;3.10;;;0.40;98.00;;;;;;5053396;28;20832;-67
2024/01/16 02:09:39;;;;;;;5.50;3.23;;;0.40;98.00;;;;;;5053704;28;20457;-67
2024/01/16 02:12:08;;;;;;;14.00;4.10;;;0.30;98.00;;;;;;5053953;28;20971;-67
2024/01/16 02:17:10;;;;;;;6.03;3.13;;;0.40;98.00;;;;;;5129307;22;20516;-65
2024/01/16 02:19:37;;;;;;;8.37;2.93;;;0.40;98.00;;;;;;5052367;28;20536;-65
2024/01/16 02:22:08;;;;;;;12.00;4.00;;;0.50;98.00;;;;;;5052430;28;20476;-65
2024/01/16 02:24:37;;;;;;;7.57;3.30;;;0.50;98.00;;;;;;5051992;28;20468;-65
2024/01/16 02:27:05;;;;;;;5.47;3.33;;;0.50;98.00;;;;;;5052265;28;20454;-65
2024/01/16 02:29:32;;;;;;;6.53;3.30;;;0.50;98.00;;;;;;5034711;28;20803;-65
2024/01/16 02:31:59;;;;;;;8.97;3.50;;;0.50;98.00;;;;;;5052329;28;20460;-65
2024/01/16 02:34:26;;;;;;;6.80;3.20;;;0.60;98.00;;;;;;5051822;28;20457;-65
2024/01/16 02:36:53;;;;;;;5.70;3.43;;;0.60;98.00;;;;;;5052038;28;20484;-65
2024/01/16 02:39:20;;;;;;;4.70;3.30;;;0.60;98.00;;;;;;5051861;28;20556;-65
2024/01/16 02:41:53;;;;;;;4.97;2.80;;;0.70;98.00;;;;;;5052137;28;20827;-65
2024/01/16 02:44:20;;;;;;;6.47;3.50;;;0.80;98.00;;;;;;5051900;28;20855;-65
2024/01/16 02:46:47;;;;;;;7.27;3.53;;;0.80;98.00;;;;;;5051933;28;20454;-66
2024/01/16 02:49:14;;;;;;;7.47;2.93;;;0.80;98.00;;;;;;5051845;28;20797;-65
2024/01/16 02:51:42;;;;;;;8.37;3.00;;;0.80;98.00;;;;;;5051632;28;20449;-65
2024/01/16 02:54:09;;;;;;;9.40;4.10;;;0.80;98.00;;;;;;5051918;28;20829;-65
2024/01/16 02:56:36;;;;;;;5.73;3.00;;;0.80;98.00;;;;;;5051562;28;20489;-65
2024/01/16 02:59:06;;;;;;;6.17;3.20;;;0.70;98.00;;;;;;5051816;28;20769;-65
2024/01/16 03:01:33;;;;;;;9.03;3.33;;;0.70;98.00;;;;;;5051843;28;21067;-65
2024/01/16 03:04:00;;;;;;;8.80;3.50;;;0.60;98.00;;;;;;5250597;22;20480;-65
2024/01/16 03:06:28;;;;;;;9.73;3.23;;;0.50;98.00;;;;;;5051710;28;20924;-66
2024/01/16 03:08:55;;;;;;;7.97;3.20;;;0.50;98.00;;;;;;5051770;28;20607;-65
2024/01/16 03:11:22;;;;;;;5.87;3.63;;;0.50;98.00;;;;;;5051509;28;20946;-65
2024/01/16 03:13:52;;;;;;;10.80;3.90;;;0.60;98.00;;;;;;5034033;28;20460;-65
2024/01/16 03:16:22;;;;;;;7.90;3.27;;;0.60;98.00;;;;;;5051249;28;20489;-65
2024/01/16 03:18:49;;;;;;;6.60;2.83;;;0.60;98.00;;;;;;5051658;28;20457;-65
2024/01/16 03:21:16;;;;;;;5.07;3.10;;;0.60;98.00;;;;;;5051401;28;20456;-65
2024/01/16 03:23:44;;;;;;;8.53;3.60;;;0.60;98.00;;;;;;5051560;28;20456;-65
2024/01/16 03:26:14;;;;;;;6.83;3.50;;;0.50;98.00;;;;;;5051433;28;20452;-65
2024/01/16 03:28:41;;;;;;;6.47;3.13;;;0.50;98.00;;;;;;5051649;28;20484;-65
2024/01/16 03:31:09;;;;;;;7.70;3.23;;;0.40;98.00;;;;;;5051279;28;20461;-65
2024/01/16 03:33:41;;;;;;;8.27;3.70;;;0.40;98.00;;;;;;5049957;28;20461;-65
2024/01/16 03:36:10;;;;;;;4.30;2.93;;;0.30;98.00;;;;;;5050443;28;20527;-65
2024/01/16 03:38:37;;;;;;;6.07;3.10;;;0.30;98.00;;;;;;5051231;28;20485;-65
2024/01/16 03:41:06;;;;;;;6.27;3.30;;;0.40;98.00;;;;;;5050951;28;20500;-65
2024/01/16 03:43:34;;;;;;;8.40;3.20;;;0.50;98.00;;;;;;5051014;28;20463;-65
2024/01/16 03:46:01;;;;;;;6.80;2.87;;;0.40;98.00;;;;;;5050950;28;20557;-65
2024/01/16 03:48:28;;;;;;;8.40;3.40;;;0.40;98.00;;;;;;5050918;28;20452;-65
2024/01/16 03:50:56;;;;;;;6.20;3.10;;;0.40;98.00;;;;;;5050963;28;20456;-65
2024/01/16 03:53:24;;;;;;;6.97;2.90;;;0.30;98.00;;;;;;5050903;28;20456;-65
2024/01/16 03:55:51;;;;;;;6.60;2.90;;;0.20;98.00;;;;;;5050704;28;20865;-65
2024/01/16 03:58:19;;;;;;;6.63;3.27;;;0.10;98.00;;;;;;5051235;28;20961;-66
2024/01/16 04:00:50;;;;;;;8.80;3.47;;;0.20;98.00;;;;;;5051000;28;21081;-65
2024/01/16 04:03:17;;;;;;;5.30;2.97;;;0.10;98.00;;;;;;5050947;28;20506;-65
2024/01/16 04:05:44;;;;;;;6.60;2.63;;;0.00;98.00;;;;;;5051910;28;20458;-65
2024/01/16 04:08:13;;;;;;;8.00;3.17;;;-0.10;98.00;;;;;;5051622;28;20468;-65
2024/01/16 04:10:41;;;;;;;7.63;3.33;;;-0.10;98.00;;;;;;5051810;28;20536;-65
2024/01/16 04:13:09;;;;;;;7.27;3.17;;;-0.10;98.00;;;;;;5050897;28;20452;-66
2024/01/16 04:15:39;;;;;;;7.73;3.17;;;-0.10;98.00;;;;;;5050718;28;20953;-65
2024/01/16 04:18:06;;;;;;;4.63;2.53;;;-0.10;98.00;;;;;;5051005;28;20528;-65
2024/01/16 04:20:33;;;;;;;5.33;2.80;;;-0.10;98.00;;;;;;5050812;28;20543;-66
2024/01/16 04:23:00;;;;;;;5.67;2.97;;;0.00;98.00;;;;;;5050730;28;20457;-65
2024/01/16 04:25:29;;;;;;;6.50;3.30;;;0.10;98.00;;;;;;5032816;28;20464;-65
2024/01/16 04:27:56;;;;;;;7.70;3.07;;;0.00;98.00;;;;;;5050801;28;20448;-65
2024/01/16 04:30:23;;;;;;;5.70;3.03;;;0.00;98.00;;;;;;5050222;28;20452;-65
2024/01/16 04:32:50;;;;;;;5.10;2.93;;;0.10;98.00;;;;;;5050736;28;20460;-65
2024/01/16 04:35:17;;;;;;;5.10;2.33;;;0.10;98.00;;;;;;5050334;28;20934;-67
2024/01/16 04:37:44;;;;;;;5.57;2.93;;;0.10;98.00;;;;;;5050661;28;20557;-66
2024/01/16 04:40:12;;;;;;;5.60;2.73;;;0.00;98.00;;;;;;5050518;28;20457;-65
2024/01/16 04:42:40;;;;;;;4.90;2.53;;;0.10;98.00;;;;;;5049936;28;20461;-65
2024/01/16 04:45:08;;;;;;;5.20;2.73;;;0.10;98.00;;;;;;5050517;28;20457;-65
2024/01/16 04:47:35;;;;;;;4.60;2.60;;;0.20;98.00;;;;;;5051499;28;20456;-65
2024/01/16 04:50:04;;;;;;;5.70;3.30;;;0.10;98.00;;;;;;5054269;28;20501;-65
2024/01/16 04:52:31;;;;;;;6.23;2.70;;;0.00;98.00;;;;;;5036220;28;20457;-65
2024/01/16 04:54:58;;;;;;;5.63;3.00;;;0.00;98.00;;;;;;5054009;28;20455;-65
2024/01/16 04:57:26;;;;;;;6.93;3.07;;;0.00;98.00;;;;;;5054179;28;20495;-67
2024/01/16 04:59:55;;;;;;;5.57;2.80;;;0.00;98.00;;;;;;5053879;28;20459;-67
2024/01/16 05:02:22;;;;;;;5.60;3.17;;;-0.10;98.00;;;;;;5054011;28;20452;-65
2024/01/16 05:04:51;;;;;;;8.03;3.60;;;0.00;98.00;;;;;;5053716;28;20461;-65
2024/01/16 05:07:20;;;;;;;8.27;3.37;;;-0.10;98.00;;;;;;5053802;28;20980;-65
2024/01/16 05:09:47;;;;;;;7.10;3.60;;;-0.20;98.00;;;;;;5036361;28;20985;-65
2024/01/16 05:14:57;;;;;;;8.37;4.10;;;-0.40;98.00;;;;;;5053756;28;20515;-65
2024/01/16 05:17:24;;;;;;;7.73;3.80;;;-0.50;98.00;;;;;;5053749;28;20527;-66
2024/01/16 05:19:52;;;;;;;8.40;4.43;;;-0.60;98.00;;;;;;5053856;28;20465;-65
2024/01/16 05:22:19;;;;;;;6.73;3.17;;;-0.70;98.00;;;;;;5054153;28;20461;-65
2024/01/16 05:24:46;;;;;;;8.77;3.30;;;-0.70;98.00;;;;;;5054061;28;20456;-65
2024/01/16 05:27:14;;;;;;;4.90;2.70;;;-0.90;98.00;;;;;;5053482;28;20461;-65
2024/01/16 05:29:42;;;;;;;6.10;3.10;;;-0.90;98.00;;;;;;5053262;28;21024;-65
2024/01/16 05:32:10;;;;;;;7.43;3.53;;;-1.00;98.00;;;;;;5052983;28;20540;-65
2024/01/16 05:34:37;;;;;;;8.00;2.90;;;-1.10;98.00;;;;;;5053250;28;20662;-65
2024/01/16 05:37:05;;;;;;;6.20;3.20;;;-1.10;98.00;;;;;;5053229;28;20484;-65
2024/01/16 05:39:32;;;;;;;5.50;3.33;;;-1.10;98.00;;;;;;5053208;28;20882;-65
2024/01/16 05:42:01;;;;;;;8.67;3.87;;;-1.00;98.00;;;;;;5053311;28;20458;-65
2024/01/16 05:44:28;;;;;;;8.93;3.60;;;-1.00;98.00;;;;;;5053315;28;20461;-65
2024/01/16 05:46:55;;;;;;;4.60;2.87;;;-1.00;98.00;;;;;;5035618;28;20483;-65
2024/01/16 05:49:24;;;;;;;7.83;3.00;;;-1.20;98.00;;;;;;5053173;28;20468;-65
2024/01/16 05:51:51;;;;;;;8.33;3.43;;;-1.10;98.00;;;;;;5052749;28;20460;-66
2024/01/16 05:54:18;;;;;;;7.20;3.90;;;-1.20;98.00;;;;;;5052892;28;20457;-65
2024/01/16 05:56:49;;;;;;;6.97;3.47;;;-1.20;98.00;;;;;;5052783;28;20526;-65
2024/01/16 05:59:17;;;;;;;5.43;2.90;;;-1.20;98.00;;;;;;5051936;28;20550;-65
2024/01/16 06:01:43;;;;;;;5.10;2.50;;;-1.20;98.00;;;;;;5052669;28;20464;-65
2024/01/16 06:04:10;;;;;;;4.67;2.63;;;-1.20;98.00;;;;;;5052656;28;20530;-65
2024/01/16 06:06:39;;;;;;;5.70;2.93;;;-1.20;98.00;;;;;;5052707;28;20512;-67
2024/01/16 06:09:06;;;;;;;10.67;3.27;;;-1.30;98.00;;;;;;5052623;28;20993;-67
2024/01/16 06:11:34;;;;;;;7.57;3.20;;;-1.50;98.00;;;;;;5052518;28;20449;-67
2024/01/16 06:14:02;;;;;;;5.30;2.80;;;-1.50;98.00;;;;;;5035122;28;20453;-67
2024/01/16 06:16:29;;;;;;;6.77;2.87;;;-1.50;98.00;;;;;;5052324;28;20456;-67
2024/01/16 06:18:56;;;;;;;9.70;3.40;;;-1.50;98.00;;;;;;5052573;28;20865;-67
2024/01/16 06:21:24;;;;;;;6.60;3.20;;;-1.50;98.00;;;;;;5052371;28;20447;-68
2024/01/16 06:23:52;;;;;;;4.17;2.90;;;-1.50;98.00;;;;;;5034652;28;20448;-65
2024/01/16 06:26:26;;;;;;;7.57;3.20;;;-1.50;98.00;;;;;;5052318;28;20454;-65
2024/01/16 06:28:55;;;;;;;4.97;3.00;;;-1.40;98.00;;;;;;5035621;28;20448;-66
2024/01/16 06:31:23;;;;;;;4.93;2.93;;;-1.40;98.00;;;;;;5052261;28;20448;-66
2024/01/16 06:33:50;;;;;;;5.73;3.00;;;-1.50;98.00;;;;;;5052222;28;20513;-66
2024/01/16 06:36:18;;;;;;;4.67;2.67;;;-1.50;98.00;;;;;;5051901;28;20452;-66
2024/01/16 06:38:45;;;;;;;13.83;3.23;;;-1.60;98.00;;;;;;5034192;28;20543;-66
2024/01/16 06:41:14;;;;;;;12.30;4.00;;;-1.50;98.00;;;;;;5051886;28;20456;-66
2024/01/16 06:43:41;;;;;;;11.17;4.10;;;-1.60;98.00;;;;;;5052128;28;20866;-66
2024/01/16 06:46:08;;;;;;;6.27;2.70;;;-1.60;98.00;;;;;;5051832;28;20485;-66
2024/01/16 06:48:36;;;;;;;5.27;2.83;;;-1.50;98.00;;;;;;5051499;28;20492;-66
2024/01/16 06:51:04;;;;;;;4.43;2.80;;;-1.30;98.00;;;;;;5051750;28;20539;-66
2024/01/16 06:53:31;;;;;;;4.77;2.93;;;-1.40;98.00;;;;;;5051817;28;20444;-66
2024/01/16 06:55:58;;;;;;;5.20;2.67;;;-1.60;98.00;;;;;;5033865;28;20462;-66
2024/01/16 06:58:26;;;;;;;5.70;2.53;;;-1.40;98.00;;;;;;5051676;28;20892;-66
2024/01/16 07:00:54;;;;;;;4.83;2.70;;;-1.30;98.00;;;;;;5051088;28;20476;-68
2024/01/16 07:03:21;;;;;;;6.30;2.90;;;-1.20;98.00;;;;;;5051093;28;20529;-65
2024/01/16 07:05:48;;;;;;;13.87;5.30;;;-1.20;98.00;;;;;;5051316;28;20461;-68
2024/01/16 07:08:15;;;;;;;6.77;3.60;;;-1.20;98.00;;;;;;5051798;28;20847;-65
2024/01/16 07:10:42;;;;;;;6.00;3.10;;;-1.20;98.00;;;;;;5051234;28;20859;-65
2024/01/16 07:13:12;;;;;;;5.20;2.87;;;-1.00;98.00;;;;;;5051549;28;20804;-65
2024/01/16 07:15:40;;;;;;;7.83;3.20;;;-1.10;98.00;;;;;;5051633;28;20452;-64
2024/01/16 07:18:07;;;;;;;6.43;2.93;;;-1.10;98.00;;;;;;5051497;28;20484;-68
2024/01/16 07:20:35;;;;;;;6.33;3.40;;;-1.10;98.00;;;;;;5051002;28;20457;-65
2024/01/16 07:23:02;;;;;;;9.97;4.77;;;-1.10;98.00;;;;;;5051362;28;20951;-65
2024/01/16 07:25:29;;;;;;;11.50;5.40;;;-1.20;98.00;;;;;;5051160;28;20460;-65
2024/01/16 07:27:56;;;;;;;6.37;3.37;;;-1.10;98.00;;;;;;5051366;28;20455;-65
2024/01/16 07:30:24;;;;;;;5.87;2.73;;;-1.10;98.00;;;;;;5051143;28;20969;-66
2024/01/16 07:32:53;;;;;;;8.20;3.47;;;-1.20;98.00;;;;;;5050113;28;20491;-68
2024/01/16 07:35:20;;;;;;;12.37;5.50;;;-1.10;98.00;;;;;;5050858;28;20452;-68
2024/01/16 07:37:47;;;;;;;14.60;5.90;;;-1.10;98.00;;;;;;5051702;28;20492;-65
2024/01/16 07:40:16;;;;;;;11.70;5.20;;;-1.10;98.00;;;;;;5414810;22;20500;-67
2024/01/16 07:42:44;;;;;;;13.23;4.93;;;-1.10;98.00;;;;;;5031337;28;20481;-64
2024/01/16 07:45:11;;;;;;;13.40;5.50;;;-1.00;98.00;;;;;;5031007;28;20461;-65
2024/01/16 07:47:41;;;;;;;9.10;3.10;;;-0.80;98.00;;;;;;5031300;28;20948;-67
2024/01/16 07:50:11;;;;;;;8.80;4.10;;;-0.80;98.00;;;;;;5029885;28;20516;-66
2024/01/16 07:52:39;;;;;;;10.07;4.37;;;-0.70;98.00;;;;;;5029829;28;20516;-65
2024/01/16 07:55:07;;;;;;;9.80;4.47;;;-0.70;98.00;;;;;;5031148;28;20524;-67
2024/01/16 07:57:34;;;;;;;10.93;3.87;;;-0.80;98.00;;;;;;5031016;28;20496;-65
2024/01/16 08:00:03;;;;;;;11.90;5.23;;;-0.80;98.00;;;;;;5031091;28;20450;-65
2024/01/16 08:02:34;;;;;;;9.67;4.90;;;-0.80;98.00;;;;;;5030999;28;20457;-66
2024/01/16 08:05:01;;;;;;;17.73;5.47;;;-0.70;98.00;;;;;;5031087;28;20496;-68
2024/01/16 08:07:30;;;;;;;13.07;4.30;;;-0.80;98.00;;;;;;5031011;28;20453;-66
2024/01/16 08:09:57;;;;;;;10.53;4.50;;;-0.80;98.00;;;;;;5030924;28;20465;-67
2024/01/16 08:12:24;;;;;;;8.30;4.00;;;-0.80;98.00;;;;;;5030816;28;21006;-67
2024/01/16 08:14:52;;;;;;;9.53;4.03;;;-0.70;98.00;;;;;;5030872;28;20488;-65
2024/01/16 08:17:21;;;;;;;11.63;4.40;;;-0.60;98.00;;;;;;5030826;28;20462;-68
2024/01/16 08:19:48;;;;;;;10.63;4.07;;;-0.60;98.00;;;;;;5030891;28;20471;-64
2024/01/16 08:22:15;;;;;;;7.17;3.70;;;-0.50;98.00;;;;;;5031441;28;20453;-67
2024/01/16 08:24:44;;;;;;;8.63;3.97;;;-0.40;98.00;;;;;;5034755;28;20449;-65
2024/01/16 08:27:11;;;;;;;8.97;4.27;;;-0.30;98.00;;;;;;5034904;28;20452;-69
2024/01/16 08:29:38;;;;;;;8.33;4.00;;;-0.30;98.00;;;;;;5034967;28;20450;-68
2024/01/16 08:32:05;;;;;;;13.53;3.63;;;-0.20;98.00;;;;;;5033394;28;20458;-65
2024/01/16 08:34:32;;;;;;;11.90;3.97;;;-0.10;98.00;;;;;;5035117;28;21012;-66
2024/01/16 08:36:59;;;;;;;7.60;4.00;;;-0.10;98.00;;;;;;5035144;28;20464;-66
2024/01/16 08:39:27;;;;;;;8.40;3.97;;;-0.10;98.00;;;;;;5034929;28;20493;-68
2024/01/16 08:41:57;;;;;;;8.87;4.50;;;0.00;98.00;;;;;;5033884;28;20828;-67
2024/01/16 08:44:25;;;;;;;8.27;4.47;;;0.10;98.00;;;;;;5034695;28;20500;-67
2024/01/16 08:46:52;;;;;;;7.57;4.30;;;0.20;98.00;;;;;;5034465;28;20527;-67
2024/01/16 08:49:19;;;;;;;7.83;4.27;;;0.30;98.00;;;;;;5034319;28;20450;-65
2024/01/16 08:51:46;;;;;;;6.90;3.57;;;0.30;98.00;;;;;;5033185;28;20947;-64
2024/01/16 08:54:13;;;;;;;11.93;4.47;;;0.50;98.00;;;;;;5034210;28;20465;-63
2024/01/16 08:56:41;;;;;;;11.47;4.63;;;0.60;98.00;;;;;;5032988;28;20462;-65
2024/01/16 08:59:10;;;;;;;10.83;5.10;;;0.60;98.00;;;;;;5034434;28;20487;-66
2024/01/16 09:01:37;;;;;;;10.10;4.40;;;0.60;98.00;;;;;;5034278;28;20476;-66
2024/01/16 09:04:04;;;;;;;7.80;4.30;;;0.70;98.00;;;;;;5033251;28;20458;-65
2024/01/16 09:06:32;;;;;;;20.63;4.40;;;0.90;98.00;;;;;;5034233;28;20465;-64
2024/01/16 09:08:59;;;;;;;14.40;4.90;;;0.80;98.00;;;;;;5032767;28;20733;-63
2024/01/16 09:11:26;;;;;;;13.07;5.77;;;0.90;98.00;;;;;;5033838;28;20458;-64
2024/01/16 09:13:53;;;;;;;21.70;5.53;;;1.00;98.00;;;;;;5033887;28;21032;-64
2024/01/16 09:16:22;;;;;;;12.73;6.20;;;1.00;98.00;;;;;;5033562;28;20468;-65
2024/01/16 09:18:58;;;;;;;11.77;5.40;;;1.10;98.00;;;;;;5033609;28;20493;-65
2024/01/16 09:21:25;;;;;;;13.60;5.20;;;1.10;98.00;;;;;;5032762;28;20964;-66
2024/01/16 09:23:52;;;;;;;11.50;4.57;;;1.10;98.00;;;;;;5033826;28;20479;-65
2024/01/16 09:26:20;;;;;;;14.13;4.53;;;1.20;98.00;;;;;;5033623;28;20469;-66
2024/01/16 09:28:48;;;;;;;10.70;4.57;;;1.20;98.00;;;;;;5044168;28;20890;-65
2024/01/16 09:31:16;;;;;;;12.87;5.70;;;1.20;98.00;;;;;;5033002;28;20959;-67
2024/01/16 09:33:45;;;;;;;18.93;5.43;;;1.20;98.00;;;;;;5032734;28;20458;-66
2024/01/16 09:36:12;;;;;;;9.70;4.83;;;1.30;98.00;;;;;;5035636;28;20497;-64
2024/01/16 09:38:39;;;;;;;10.13;5.10;;;1.40;98.00;;;;;;5051400;28;20534;-66
2024/01/16 09:41:06;;;;;;;9.67;4.70;;;1.40;98.00;;;;;;5053003;28;20460;-66
2024/01/16 09:43:34;;;;;;;6.97;4.00;;;1.40;98.00;;;;;;5053036;28;20464;-66
2024/01/16 09:46:02;;;;;;;9.00;4.03;;;1.20;98.00;;;;;;5053026;28;20920;-67
2024/01/16 09:48:31;;;;;;;8.60;3.70;;;1.30;98.00;;;;;;5051361;28;20545;-66
2024/01/16 09:51:00;;;;;;;8.80;4.77;;;1.40;98.00;;;;;;5053027;28;20454;-64
2024/01/16 09:53:27;;;;;;;6.60;3.50;;;1.40;98.00;;;;;;5053665;28;20461;-64
2024/01/16 09:55:58;;;;;;;5.37;3.40;;;1.60;98.00;;;;;;5054091;28;20456;-65
2024/01/16 09:58:26;;;;;;;7.30;3.27;;;1.50;98.00;;;;;;5053688;28;20513;-63
2024/01/16 10:00:54;;;;;;;7.13;3.50;;;1.50;98.00;;;;;;5052190;28;20863;-65
2024/01/16 10:03:22;;;;;;;6.90;3.20;;;1.60;98.00;;;;;;5053478;28;20485;-66
2024/01/16 10:05:50;;;;;;;7.23;3.50;;;1.70;98.00;;;;;;5052321;28;20955;-67
2024/01/16 10:08:21;;;;;;;6.57;3.33;;;1.80;98.00;;;;;;5053551;28;20457;-65
2024/01/16 10:10:48;;;;;;;9.37;4.30;;;1.90;98.00;;;;;;5053184;28;20472;-66
2024/01/16 10:13:18;;;;;;;7.30;3.17;;;2.00;98.00;;;;;;5053338;28;20453;-64
2024/01/16 10:15:45;;;;;;;9.60;3.90;;;2.00;98.00;;;;;;5052063;28;20461;-65
2024/01/16 10:18:24;;;;;;;7.53;3.47;;;2.10;98.00;;;;;;5053522;28;20923;-66
2024/01/16 10:20:52;;;;;;;8.40;3.70;;;2.10;98.00;;;;;;5053405;28;20544;-67
2024/01/16 10:23:25;;;;;;;7.37;3.70;;;2.10;98.00;;;;;;5053115;28;20450;-62
2024/01/16 10:26:18;;;;;;;7.67;3.40;;;;;;;;;;5053134;28;20461;-60
2024/01/16 10:28:45;;;;;;;7.60;3.80;;;2.10;98.00;;;;;;5038526;28;20454;-63
2024/01/16 10:31:14;;;;;;;10.00;3.67;;;2.10;98.00;;;;;;5052869;28;20944;-61
2024/01/16 10:33:41;;;;;;;5.73;3.60;;;2.10;98.00;;;;;;5053034;28;20489;-62
2024/01/16 10:36:13;;;;;;;6.90;3.50;;;2.20;98.00;;;;;;5052965;28;20446;-63
2024/01/16 10:38:43;;;;;;;6.83;3.60;;;2.40;98.00;;;;;;5052877;28;20488;-61
2024/01/16 10:41:11;;;;;;;9.07;3.67;;;2.50;98.00;;;;;;5052743;28;20453;-65
2024/01/16 10:43:39;;;;;;;6.80;3.70;;;2.50;98.00;;;;;;5052837;28;20450;-65
2024/01/16 10:46:14;;;;;;;5.90;3.60;;;2.50;98.00;;;;;;5045871;28;20459;-65
2024/01/16 10:48:43;;;;;;;7.50;3.47;;;2.60;98.00;;;;;;5032557;28;20451;-64
2024/01/16 10:51:13;;;;;;;11.90;3.67;;;2.50;98.00;;;;;;5032370;28;20461;-66
2024/01/16 10:53:44;;;;;;;7.87;3.60;;;2.50;98.00;;;;;;5032118;28;20451;-67
2024/01/16 10:56:15;;;;;;;11.20;3.50;;;2.60;98.00;;;;;;5032465;28;20478;-64
2024/01/16 10:58:43;;;;;;;12.60;5.07;;;2.60;98.00;;;;;;5031060;28;20534;-66
2024/01/16 11:01:13;;;;;;;11.37;5.60;;;2.70;98.00;;;;;;5032174;28;20454;-64
2024/01/16 11:03:47;;;;;;;13.40;5.70;;;2.70;98.00;;;;;;5032178;28;20590;-65
2024/01/16 11:06:16;;;;;;;16.33;7.40;;;2.90;98.00;;;;;;5032281;28;20462;-67
2024/01/16 11:08:47;;;;;;;11.63;5.67;;;;;;;;;;5041133;28;20476;-64
2024/01/16 11:11:15;;;;;;;11.47;5.10;;;3.10;98.00;;;;;;5051993;28;21199;-65
2024/01/16 11:13:44;;;;;;;11.53;4.93;;;3.20;98.00;;;;;;5052050;28;20462;-66
2024/01/16 11:16:12;;;;;;;10.90;5.43;;;3.30;98.00;;;;;;5051843;28;20454;-63
2024/01/16 11:18:39;;;;;;;10.27;4.83;;;3.20;98.00;;;;;;5046096;28;20869;-66
2024/01/16 11:21:10;;;;;;;10.00;4.20;;;3.40;98.00;;;;;;5051893;28;20480;-67
2024/01/16 11:23:38;;;;;;;8.67;4.20;;;3.50;98.00;;;;;;5051978;28;20873;-63
2024/01/16 11:26:32;;;;;;;8.53;4.17;;;3.40;98.00;;;;;;5051866;28;20453;-65
2024/01/16 11:29:00;;;;;;;9.57;4.70;;;3.30;98.00;;;;;;5051772;28;20765;-64
2024/01/16 11:31:31;;;;;;;9.40;5.10;;;3.50;98.00;;;;;;5050574;28;20468;-64
2024/01/16 11:34:00;;;;;;;13.87;5.10;;;3.70;98.00;;;;;;5051877;28;20455;-64
2024/01/16 11:36:55;;;;;;;11.23;4.30;;;3.90;98.00;;;;;;5051614;28;20487;-65
2024/01/16 11:39:24;;;;;;;7.03;3.67;;;4.10;98.00;;;;;;5051602;28;20548;-64
2024/01/16 11:42:02;;;;;;;9.40;4.50;;;4.10;98.00;;;;;;5051861;28;20455;-66
2024/01/16 11:44:43;;;;;;;13.50;4.67;;;4.00;98.00;;;;;;5050284;28;20462;-65
2024/01/16 11:47:17;;;;;;;9.07;4.10;;;4.20;98.00;;;;;;5051700;28;20459;-64
2024/01/16 11:49:45;;;;;;;9.20;4.17;;;4.30;98.00;;;;;;5051734;28;20450;-65
2024/01/16 11:52:13;;;;;;;9.33;4.10;;;4.40;98.00;;;;;;5050293;28;20456;-65
2024/01/16 11:54:41;;;;;;;5.20;3.00;;;4.40;98.00;;;;;;5051850;28;20912;-65
2024/01/16 11:57:32;;;;;;;8.10;3.03;;;4.60;98.00;;;;;;5051969;28;20499;-65
2024/01/16 12:00:03;;;;;;;6.27;2.90;;;4.70;98.00;;;;;;5055738;28;21010;-64
2024/01/16 12:02:48;;;;;;;5.70;2.90;;;4.80;98.00;;;;;;5056063;28;20459;-64
2024/01/16 12:05:15;;;;;;;6.27;3.20;;;4.90;98.00;;;;;;5055739;28;20490;-64
2024/01/16 12:07:50;;;;;;;6.37;2.93;;;5.10;98.00;;;;;;5055795;28;20461;-65
2024/01/16 12:10:18;;;;;;;9.20;3.83;;;5.30;98.00;;;;;;5055702;28;20459;-66
2024/01/16 12:12:49;;;;;;;13.50;3.80;;;5.50;98.00;;;;;;5055080;28;20932;-64
2024/01/16 12:15:18;;;;;;;5.90;2.97;;;5.50;98.00;;;;;;5055869;28;20447;-64
2024/01/16 12:18:00;;;;;;;6.53;3.27;;;5.30;98.00;;;;;;5055830;28;20550;-66
2024/01/16 12:20:28;;;;;;;5.27;2.70;;;5.50;98.00;;;;;;5053584;28;20545;-63
2024/01/16 12:23:00;;;;;;;7.13;3.03;;;5.70;98.00;;;;;;5054395;28;20903;-66
2024/01/16 12:25:28;;;;;;;6.10;2.60;;;5.80;98.00;;;;;;5055542;28;20453;-63
2024/01/16 12:27:58;;;;;;;3.83;2.30;;;5.70;98.00;;;;;;5055542;28;20988;-65
2024/01/16 12:30:28;;;;;;;3.80;2.30;;;5.60;98.00;;;;;;5055181;28;20455;-66
2024/01/16 12:33:07;;;;;;;2.67;1.97;;;5.50;98.00;;;;;;5055250;28;20450;-65
2024/01/16 12:35:50;;;;;;;3.57;2.07;;;5.40;98.00;;;;;;5055103;28;20507;-66
2024/01/16 12:38:19;;;;;;;3.30;1.90;;;5.40;98.00;;;;;;5054866;28;20453;-65
2024/01/16 12:40:57;;;;;;;2.93;1.70;;;5.40;98.00;;;;;;5054619;28;20827;-65
2024/01/16 12:43:26;;;;;;;7.27;1.80;;;5.50;98.00;;;;;;5054932;28;20945;-65
2024/01/16 12:48:43;;;;;;;2.57;1.63;;;5.50;98.00;;;;;;5054787;28;20467;-64
2024/01/16 12:51:12;;;;;;;1.97;1.50;;;5.70;97.40;;;;;;5054582;28;20447;-66
2024/01/16 12:53:39;;;;;;;2.20;1.67;;;5.70;95.00;;;;;;5054957;28;20446;-64
2024/01/16 12:56:08;;;;;;;2.40;1.63;;;5.70;96.50;;;;;;5054732;28;20452;-63
2024/01/16 12:58:37;;;;;;;3.13;1.87;;;5.90;96.90;;;;;;5053961;28;20454;-66
2024/01/16 13:01:23;;;;;;;1.97;1.40;;;6.00;97.60;;;;;;5054065;28;21202;-67
2024/01/16 13:03:51;;;;;;;3.53;1.90;;;6.10;94.00;;;;;;5053954;28;20458;-64
2024/01/16 13:06:20;;;;;;;2.53;1.70;;;6.00;94.20;;;;;;5054435;28;20461;-65
2024/01/16 13:08:47;;;;;;;2.27;1.50;;;6.30;94.30;;;;;;5054664;28;20877;-67